createdAt,value
2022-12-01T00:02:42.845Z,3.39
2022-12-01T00:05:44.296Z,3.38
2022-12-01T00:08:47.654Z,3.39
2022-12-01T00:11:48.985Z,3.24
2022-12-01T00:14:50.378Z,3.31
2022-12-01T00:17:51.729Z,3.34
2022-12-01T00:20:53.082Z,3.33
2022-12-01T00:23:57.294Z,3.34
2022-12-01T00:26:58.643Z,3.31
2022-12-01T00:29:59.990Z,3.27
2022-12-01T00:33:01.326Z,3.23
2022-12-01T00:36:03.856Z,3.17
2022-12-01T00:39:05.216Z,3.13
2022-12-01T00:42:11.744Z,3.17
2022-12-01T00:45:14.682Z,3.18
2022-12-01T00:48:16.123Z,3.24
2022-12-01T00:51:17.466Z,3.23
2022-12-01T00:54:18.871Z,3.17
2022-12-01T00:57:20.227Z,3.17
2022-12-01T01:00:23.534Z,3.17
2022-12-01T01:03:25.678Z,3.22
2022-12-01T01:06:27.056Z,3.23
2022-12-01T01:09:28.488Z,3.23
2022-12-01T01:12:29.964Z,3.24
2022-12-01T01:15:31.845Z,3.28
2022-12-01T01:18:33.822Z,3.28
2022-12-01T01:21:35.372Z,3.27
2022-12-01T01:24:36.931Z,3.27
2022-12-01T01:27:38.280Z,3.23
2022-12-01T01:30:40.361Z,3.23
2022-12-01T01:33:42.026Z,3.26
2022-12-01T01:36:43.398Z,3.24
2022-12-01T01:39:44.804Z,3.22
2022-12-01T01:42:46.141Z,3.21
2022-12-01T01:45:47.497Z,3.20
2022-12-01T01:49:11.238Z,3.23
2022-12-01T01:52:13.341Z,3.24
2022-12-01T01:55:15.453Z,3.26
2022-12-01T01:58:16.986Z,3.22
2022-12-01T02:01:18.424Z,3.24
2022-12-01T02:04:20.425Z,3.24
2022-12-01T02:07:21.866Z,3.22
2022-12-01T02:11:10.639Z,3.16
2022-12-01T02:14:38.994Z,3.15
2022-12-01T02:18:02.144Z,3.14
2022-12-01T02:21:41.034Z,3.08
2022-12-01T02:25:27.127Z,3.07
2022-12-01T02:28:53.956Z,3.08
2022-12-01T02:31:59.078Z,3.08
2022-12-01T02:35:39.059Z,3.05
2022-12-01T02:38:51.792Z,3.11
2022-12-01T02:42:07.150Z,3.12
2022-12-01T02:45:14.943Z,3.12
2022-12-01T02:48:25.647Z,3.12
2022-12-01T02:51:30.406Z,3.11
2022-12-01T02:54:33.431Z,3.09
2022-12-01T02:57:34.787Z,3.05
2022-12-01T03:00:36.620Z,3.07
2022-12-01T03:03:53.669Z,3.12
2022-12-01T03:07:12.618Z,3.12
2022-12-01T03:10:31.864Z,3.11
2022-12-01T03:13:45.991Z,3.11
2022-12-01T03:16:51.544Z,3.11
2022-12-01T03:19:59.263Z,3.12
2022-12-01T03:23:08.740Z,3.11
2022-12-01T03:26:17.073Z,3.06
2022-12-01T03:29:26.496Z,3.06
2022-12-01T03:32:41.060Z,3.07
2022-12-01T03:35:53.906Z,3.03
2022-12-01T03:39:01.037Z,3.06
2022-12-01T03:42:10.421Z,3.08
2022-12-01T03:45:18.210Z,3.02
2022-12-01T03:48:19.682Z,3.03
2022-12-01T03:51:56.255Z,3.01
2022-12-01T03:55:00.610Z,3.02
2022-12-01T03:58:07.973Z,3.04
2022-12-01T04:01:09.660Z,3.03
2022-12-01T04:04:13.812Z,3.01
2022-12-01T04:07:15.214Z,3.01
2022-12-01T04:10:16.654Z,3.00
2022-12-01T04:13:18.131Z,3.01
2022-12-01T04:16:19.490Z,2.99
2022-12-01T04:19:20.927Z,3.01
2022-12-01T04:22:23.435Z,3.00
2022-12-01T04:25:24.823Z,2.97
2022-12-01T04:28:26.643Z,2.95
2022-12-01T04:31:28.598Z,2.97
2022-12-01T04:34:29.984Z,2.97
2022-12-01T04:37:31.324Z,2.95
2022-12-01T04:40:32.797Z,2.92
2022-12-01T04:43:34.172Z,2.88
2022-12-01T04:46:35.606Z,2.89
2022-12-01T04:49:37.101Z,2.88
2022-12-01T04:52:38.476Z,2.89
2022-12-01T04:55:39.937Z,2.90
2022-12-01T04:58:41.353Z,2.90
2022-12-01T05:01:42.912Z,2.91
2022-12-01T05:04:44.457Z,2.85
2022-12-01T05:07:45.894Z,2.88
2022-12-01T05:10:47.294Z,2.91
2022-12-01T05:13:49.212Z,2.86
2022-12-01T05:16:50.872Z,2.81
2022-12-01T05:19:52.266Z,2.82
2022-12-01T05:23:05.213Z,2.79
2022-12-01T05:26:09.227Z,2.76
2022-12-01T05:29:11.666Z,2.75
2022-12-01T05:32:13.059Z,2.73
2022-12-01T05:35:14.633Z,2.70
2022-12-01T05:38:16.448Z,2.72
2022-12-01T05:41:17.830Z,2.69
2022-12-01T05:44:19.557Z,2.68
2022-12-01T05:47:20.952Z,2.66
2022-12-01T05:50:23.306Z,2.65
2022-12-01T05:53:24.774Z,2.62
2022-12-01T05:56:26.201Z,2.63
2022-12-01T05:59:28.338Z,2.61
2022-12-01T06:02:29.724Z,2.62
2022-12-01T06:05:31.490Z,2.59
2022-12-01T06:08:32.914Z,2.66
2022-12-01T06:11:34.265Z,2.65
2022-12-01T06:14:35.616Z,2.66
2022-12-01T06:17:40.182Z,2.61
2022-12-01T06:20:41.997Z,2.55
2022-12-01T06:23:43.323Z,2.57
2022-12-01T06:26:44.688Z,2.55
2022-12-01T06:29:46.020Z,2.53
2022-12-01T06:32:47.370Z,2.57
2022-12-01T06:35:48.725Z,2.58
2022-12-01T06:38:50.081Z,2.55
2022-12-01T06:41:51.417Z,2.53
2022-12-01T06:44:52.758Z,2.51
2022-12-01T06:47:55.302Z,2.54
2022-12-01T06:51:00.597Z,2.53
2022-12-01T06:54:05.493Z,2.54
2022-12-01T06:57:07.182Z,2.54
2022-12-01T07:00:09.477Z,2.56
2022-12-01T07:03:10.978Z,2.53
2022-12-01T07:06:12.331Z,2.58
2022-12-01T07:09:13.691Z,2.53
2022-12-01T07:12:15.021Z,2.54
2022-12-01T07:15:16.521Z,2.53
2022-12-01T07:18:18.346Z,2.51
2022-12-01T07:21:19.775Z,2.55
2022-12-01T07:24:21.130Z,2.56
2022-12-01T07:27:22.538Z,2.58
2022-12-01T07:30:28.253Z,2.59
2022-12-01T07:33:30.738Z,2.58
2022-12-01T07:36:32.205Z,2.60
2022-12-01T07:39:33.561Z,2.60
2022-12-01T07:42:34.887Z,2.60
2022-12-01T07:45:36.423Z,2.61
2022-12-01T07:48:38.961Z,2.60
2022-12-01T07:51:40.356Z,2.60
2022-12-01T07:54:41.698Z,2.60
2022-12-01T07:57:43.038Z,2.59
2022-12-01T08:00:44.429Z,2.60
2022-12-01T08:03:48.242Z,2.62
2022-12-01T08:06:49.592Z,2.64
2022-12-01T08:09:51.264Z,2.65
2022-12-01T08:12:52.917Z,2.60
2022-12-01T08:15:54.434Z,2.62
2022-12-01T08:18:55.864Z,2.62
2022-12-01T08:21:57.360Z,2.60
2022-12-01T08:24:58.800Z,2.58
2022-12-01T08:28:00.765Z,2.57
2022-12-01T08:31:14.458Z,2.57
2022-12-01T08:34:15.872Z,2.58
2022-12-01T08:37:17.244Z,2.58
2022-12-01T08:40:18.684Z,2.58
2022-12-01T08:43:49.477Z,2.61
2022-12-01T08:46:41.386Z,2.60
2022-12-01T08:49:42.762Z,2.61
2022-12-01T08:52:44.081Z,2.66
2022-12-01T08:55:45.410Z,2.69
2022-12-01T08:58:46.802Z,2.69
2022-12-01T09:01:48.242Z,2.68
2022-12-01T09:04:50.259Z,2.69
2022-12-01T09:07:51.686Z,2.72
2022-12-01T09:10:53.455Z,2.75
2022-12-01T09:13:54.943Z,2.76
2022-12-01T09:16:56.287Z,2.74
2022-12-01T09:19:57.604Z,2.75
2022-12-01T09:22:58.924Z,2.65
2022-12-01T09:26:00.367Z,2.63
2022-12-01T09:29:05.940Z,2.65
2022-12-01T09:32:07.267Z,2.64
2022-12-01T09:35:08.636Z,2.64
2022-12-01T09:38:09.989Z,2.65
2022-12-01T09:41:18.855Z,2.70
2022-12-01T09:44:56.944Z,2.66
2022-12-01T09:48:02.601Z,2.75
2022-12-01T09:51:04.017Z,2.85
2022-12-01T09:54:10.587Z,2.94
2022-12-01T09:57:28.364Z,3.03
2022-12-01T10:00:34.023Z,3.32
2022-12-01T10:03:43.548Z,3.33
2022-12-01T10:07:03.307Z,3.37
2022-12-01T10:10:14.477Z,3.55
2022-12-01T10:13:20.187Z,3.65
2022-12-01T10:16:32.572Z,3.79
2022-12-01T10:19:42.570Z,3.93
2022-12-01T10:22:58.922Z,3.96
2022-12-01T10:26:07.970Z,3.89
2022-12-01T10:29:16.502Z,3.82
2022-12-01T10:32:30.298Z,3.71
2022-12-01T10:35:33.134Z,3.69
2022-12-01T10:38:37.303Z,3.70
2022-12-01T10:41:39.788Z,3.64
2022-12-01T10:44:42.050Z,3.44
2022-12-01T10:48:09.519Z,3.20
2022-12-01T10:51:17.302Z,3.18
2022-12-01T10:54:20.102Z,3.16
2022-12-01T10:57:21.557Z,3.24
2022-12-01T11:00:57.952Z,3.28
2022-12-01T11:03:52.022Z,3.35
2022-12-01T11:06:53.568Z,3.32
2022-12-01T11:10:04.321Z,3.34
2022-12-01T11:13:14.928Z,3.33
2022-12-01T11:16:34.131Z,3.31
2022-12-01T11:19:35.562Z,3.24
2022-12-01T11:22:38.201Z,3.27
2022-12-01T11:25:39.572Z,3.18
2022-12-01T11:29:02.992Z,3.02
2022-12-01T11:32:32.989Z,3.01
2022-12-01T11:35:37.869Z,3.08
2022-12-01T11:38:39.270Z,3.02
2022-12-01T11:41:40.735Z,3.02
2022-12-01T11:44:55.367Z,3.01
2022-12-01T11:48:12.026Z,2.85
2022-12-01T11:51:19.344Z,2.77
2022-12-01T11:54:26.161Z,2.79
2022-12-01T11:57:34.816Z,2.79
2022-12-01T12:00:57.387Z,2.79
2022-12-01T12:04:12.320Z,2.80
2022-12-01T12:07:42.821Z,2.62
2022-12-01T12:10:59.496Z,2.53
2022-12-01T12:14:10.115Z,2.59
2022-12-01T12:17:24.462Z,2.68
2022-12-01T12:20:47.158Z,2.70
2022-12-01T12:24:09.183Z,2.64
2022-12-01T12:27:15.668Z,2.65
2022-12-01T12:30:21.645Z,2.64
2022-12-01T12:34:07.576Z,2.51
2022-12-01T12:37:26.229Z,2.35
2022-12-01T12:40:54.689Z,2.34
2022-12-01T12:43:58.916Z,2.34
2022-12-01T12:47:26.733Z,2.25
2022-12-01T12:50:49.628Z,2.22
2022-12-01T12:54:07.819Z,2.12
2022-12-01T12:57:35.544Z,2.14
2022-12-01T13:00:42.376Z,2.10
2022-12-01T13:03:55.588Z,2.04
2022-12-01T13:07:05.213Z,2.08
2022-12-01T13:10:20.240Z,2.11
2022-12-01T13:13:30.781Z,2.11
2022-12-01T13:16:37.792Z,2.14
2022-12-01T13:19:41.153Z,2.15
2022-12-01T13:22:42.817Z,2.02
2022-12-01T13:25:49.084Z,2.12
2022-12-01T13:28:56.039Z,2.12
2022-12-01T13:31:57.406Z,2.17
2022-12-01T13:35:00.310Z,2.24
2022-12-01T13:38:33.150Z,2.21
2022-12-01T13:41:38.385Z,2.21
2022-12-01T13:44:45.864Z,2.15
2022-12-01T13:47:47.196Z,2.21
2022-12-01T13:50:59.027Z,2.24
2022-12-01T13:54:28.051Z,2.12
2022-12-01T13:57:34.532Z,2.15
2022-12-01T14:00:36.074Z,2.16
2022-12-01T14:03:39.631Z,2.13
2022-12-01T14:06:44.126Z,2.17
2022-12-01T14:09:45.899Z,2.13
2022-12-01T14:12:49.049Z,2.14
2022-12-01T14:15:55.731Z,2.23
2022-12-01T14:18:58.972Z,2.24
2022-12-01T14:22:02.080Z,2.15
2022-12-01T14:25:28.765Z,2.15
2022-12-01T14:29:00.082Z,2.02
2022-12-01T14:32:01.360Z,1.98
2022-12-01T14:35:05.085Z,1.97
2022-12-01T14:38:09.912Z,1.82
2022-12-01T14:41:22.791Z,1.87
2022-12-01T14:44:33.104Z,1.89
2022-12-01T14:47:52.436Z,1.92
2022-12-01T14:51:09.506Z,1.96
2022-12-01T14:54:18.270Z,1.77
2022-12-01T14:57:24.509Z,1.71
2022-12-01T15:00:26.429Z,1.73
2022-12-01T15:03:34.042Z,1.73
2022-12-01T15:06:37.289Z,1.62
2022-12-01T15:09:58.699Z,1.59
2022-12-01T15:13:14.399Z,1.62
2022-12-01T15:16:18.980Z,1.70
2022-12-01T15:19:37.623Z,1.72
2022-12-01T15:22:41.085Z,1.70
2022-12-01T15:25:45.482Z,1.65
2022-12-01T15:28:46.926Z,1.56
2022-12-01T15:31:51.771Z,1.49
2022-12-01T15:34:55.288Z,1.45
2022-12-01T15:37:56.952Z,1.28
2022-12-01T15:41:28.416Z,1.34
2022-12-01T15:44:41.505Z,1.43
2022-12-01T15:47:42.786Z,1.37
2022-12-01T15:50:58.598Z,1.34
2022-12-01T15:54:01.358Z,1.42
2022-12-01T15:57:02.993Z,1.39
2022-12-01T16:00:04.939Z,1.40
2022-12-01T16:03:14.517Z,1.46
2022-12-01T16:06:16.272Z,1.45
2022-12-01T16:09:20.652Z,1.38
2022-12-01T16:12:24.564Z,1.42
2022-12-01T16:15:25.969Z,1.46
2022-12-01T16:18:34.216Z,1.39
2022-12-01T16:21:43.069Z,1.34
2022-12-01T16:24:50.835Z,1.41
2022-12-01T16:27:56.991Z,1.48
2022-12-01T16:30:58.676Z,1.46
2022-12-01T16:34:13.998Z,1.38
2022-12-01T16:37:24.057Z,1.24
2022-12-01T16:40:25.702Z,1.35
2022-12-01T16:43:28.548Z,1.38
2022-12-01T16:46:29.997Z,1.37
2022-12-01T16:49:31.375Z,1.39
2022-12-01T16:52:48.267Z,1.33
2022-12-01T16:55:53.749Z,1.36
2022-12-01T16:58:55.161Z,1.35
2022-12-01T17:01:56.609Z,1.35
2022-12-01T17:04:57.970Z,1.39
2022-12-01T17:07:59.941Z,1.38
2022-12-01T17:11:05.099Z,1.43
2022-12-01T17:14:06.516Z,1.41
2022-12-01T17:17:07.854Z,1.41
2022-12-01T17:20:10.548Z,1.42
2022-12-01T17:23:11.934Z,1.44
2022-12-01T17:26:16.253Z,1.43
2022-12-01T17:29:17.600Z,1.46
2022-12-01T17:32:18.976Z,1.44
2022-12-01T17:35:20.294Z,1.44
2022-12-01T17:38:21.632Z,1.46
2022-12-01T17:41:23.006Z,1.44
2022-12-01T17:44:24.335Z,1.48
2022-12-01T17:47:26.284Z,1.45
2022-12-01T17:50:27.608Z,1.44
2022-12-01T17:53:28.945Z,1.40
2022-12-01T17:56:30.824Z,1.41
2022-12-01T17:59:32.156Z,1.38
2022-12-01T18:02:34.017Z,1.39
2022-12-01T18:05:35.419Z,1.36
2022-12-01T18:08:36.862Z,1.38
2022-12-01T18:11:38.238Z,1.41
2022-12-01T18:14:39.574Z,1.36
2022-12-01T18:17:40.884Z,1.36
2022-12-01T18:20:43.533Z,1.35
2022-12-01T18:23:56.661Z,1.34
2022-12-01T18:26:58.030Z,1.31
2022-12-01T18:29:59.350Z,1.31
2022-12-01T18:33:01.244Z,1.33
2022-12-01T18:36:03.574Z,1.32
2022-12-01T18:39:06.542Z,1.34
2022-12-01T18:42:07.886Z,1.29
2022-12-01T18:45:09.620Z,1.28
2022-12-01T18:48:10.963Z,1.26
2022-12-01T18:51:12.874Z,1.26
2022-12-01T18:54:15.746Z,1.25
2022-12-01T18:57:17.084Z,1.16
2022-12-01T19:00:18.791Z,1.16
2022-12-01T19:03:20.417Z,1.22
2022-12-01T19:06:22.385Z,1.23
2022-12-01T19:09:23.925Z,1.24
2022-12-01T19:12:25.349Z,1.24
2022-12-01T19:15:26.732Z,1.21
2022-12-01T19:18:28.065Z,1.19
2022-12-01T19:21:29.421Z,1.27
2022-12-01T19:24:30.745Z,1.21
2022-12-01T19:27:32.154Z,1.18
2022-12-01T19:30:34.715Z,1.22
2022-12-01T19:33:36.106Z,1.26
2022-12-01T19:36:37.450Z,1.26
2022-12-01T19:39:38.842Z,1.27
2022-12-01T19:42:41.111Z,1.28
2022-12-01T19:45:42.543Z,1.27
2022-12-01T19:48:44.454Z,1.27
2022-12-01T19:51:45.807Z,1.25
2022-12-01T19:54:47.149Z,1.25
2022-12-01T19:57:51.632Z,1.25
2022-12-01T20:00:52.995Z,1.21
2022-12-01T20:03:54.855Z,1.22
2022-12-01T20:06:56.249Z,1.21
2022-12-01T20:09:57.604Z,1.21
2022-12-01T20:12:58.980Z,1.17
2022-12-01T20:16:05.768Z,1.17
2022-12-01T20:19:07.593Z,1.17
2022-12-01T20:22:08.971Z,1.21
2022-12-01T20:25:10.445Z,1.25
2022-12-01T20:28:11.793Z,1.28
2022-12-01T20:31:20.633Z,1.27
2022-12-01T20:34:25.457Z,1.26
2022-12-01T20:37:26.847Z,1.24
2022-12-01T20:40:28.234Z,1.19
2022-12-01T20:43:30.205Z,1.19
2022-12-01T20:46:31.722Z,1.21
2022-12-01T20:49:33.186Z,1.23
2022-12-01T20:52:34.742Z,1.19
2022-12-01T20:55:36.726Z,1.21
2022-12-01T20:58:39.259Z,1.13
2022-12-01T21:01:40.633Z,1.14
2022-12-01T21:04:42.147Z,1.10
2022-12-01T21:07:43.618Z,1.04
2022-12-01T21:10:45.841Z,1.11
2022-12-01T21:13:47.176Z,1.13
2022-12-01T21:16:48.707Z,1.17
2022-12-01T21:19:55.904Z,1.13
2022-12-01T21:23:08.587Z,1.11
2022-12-01T21:26:14.120Z,1.05
2022-12-01T21:29:17.672Z,0.97
2022-12-01T21:32:31.125Z,1.02
2022-12-01T21:35:32.473Z,1.10
2022-12-01T21:38:33.796Z,1.00
2022-12-01T21:41:35.159Z,1.06
2022-12-01T21:44:37.192Z,1.06
2022-12-01T21:47:38.590Z,1.07
2022-12-01T21:50:39.946Z,1.00
2022-12-01T21:53:41.428Z,1.05
2022-12-01T21:56:42.790Z,1.08
2022-12-01T21:59:44.173Z,1.04
